• Join FlightAware (Why Join?)
  • Login
  • US Flag 
02:54AM EDT


 

Airport Tracker/Info


-or-


 

Live Flight TrackerFlight Track Log ✈ AAL1592 ✈ 10-May-2012 ✈ KDFW - KMCO

Flight Track Log - Related Links

Times and Time Zones

All times are in EDT time to prevent confusion due to time zone crossing. See the AAL1592 flight status page for this flight to view local times or setup timezone preferences in your user account.

Time Position Orientation Groundspeed Altitude Reporting Facility
EDT Latitude Longitude Course Direction KTS MPH feet Rate Location/Type
01:38PM 32.8293 -97.0284 358° North  Level FlightAware Approximate
01:39PM 32.8725 -97.0303 152° Southeast 162 186 2,000  Level FAA TRACON SMA TRACON (SMA)
01:43PM 32.6858 -96.9114 84° East 308 354 10,600 2,040 Climbing FAA TRACON SMA TRACON (SMA)
01:43PM 32.6919 -96.8358 82° East 332 382 11,800 2,160 Climbing FAA TRACON SMA TRACON (SMA)
01:44PM 32.7006 -96.7642 80° East 349 402 13,500 2,700 Climbing FAA TRACON SMA TRACON (SMA)
01:45PM 32.7128 -96.6839 80° East 361 415 15,400 2,400 Climbing FAA TRACON SMA TRACON (SMA)
01:45PM 32.7253 -96.6003 80° East 371 427 16,700 1,800 Climbing FAA TRACON SMA TRACON (SMA)
01:46PM 32.7364 -96.5222 80° East 390 449 17,800 2,460 Climbing FAA TRACON SMA TRACON (SMA)
01:47PM 32.7497 -96.4331 80° East 396 456 20,000 2,520 Climbing FAA TRACON SMA TRACON (SMA)
01:47PM 32.7622 -96.3447 94° East 397 457 21,200 1,560 Climbing FAA TRACON SMA TRACON (SMA)
01:48PM 32.7575 -96.2631 101° East 405 466 22,100 1,560 Climbing FAA TRACON SMA TRACON (SMA)
01:49PM 32.7425 -96.1692 98° East 420 483 23,300 1,800 Climbing FAA TRACON SMA TRACON (SMA)
01:49PM 32.7311 -96.0739 101° East 423 487 24,500 1,560 Climbing FAA TRACON SMA TRACON (SMA)
01:50PM 32.7167 -95.9889 100° East 429 494 25,400 1,320 Climbing FAA TRACON SMA TRACON (SMA)
01:51PM 32.7028 -95.8906 107° East 439 505 26,300 1,320 Climbing FAA TRACON SMA TRACON (SMA)
01:51PM 32.6811 -95.8042 99° East 433 498 27,100 1,200 Climbing Fort Worth Center
01:52PM 32.6603 -95.6564 86° East 445 512 28,300 1,200 Climbing Fort Worth Center
01:53PM 32.6686 -95.5058 85° East 453 521 29,500 1,200 Climbing Fort Worth Center
01:54PM 32.6789 -95.3525 87° East 458 527 30,700 1,080 Climbing Fort Worth Center
01:55PM 32.6847 -95.2167 87° East 459 528 31,700 900 Climbing Fort Worth Center
01:56PM 32.6925 -95.0608 85° East 459 528 32,500 720 Climbing Fort Worth Center
01:57PM 32.7039 -94.9028 94° East 464 534 33,200 600 Climbing Fort Worth Center
01:58PM 32.6944 -94.7450 111° Southeast 469 540 33,800 660 Climbing Fort Worth Center
01:59PM 32.6453 -94.5958 113° Southeast 469 540 34,600 600 Climbing Fort Worth Center
02:00PM 32.5939 -94.4494 112° Southeast 475 547 35,000 180 Climbing Fort Worth Center
02:01PM 32.5444 -94.3033 112° Southeast 481 554 35,000  Level Fort Worth Center
02:02PM 32.4928 -94.1550 112° Southeast 487 560 35,000  Level Fort Worth Center
02:03PM 32.4431 -94.0089 112° Southeast 487 560 35,000  Level Fort Worth Center
02:04PM 32.3931 -93.8608 113° Southeast 487 560 35,000  Level Fort Worth Center
02:07PM 32.2778 -93.5333 113° Southeast 493 567 35,000  Level Houston Center
02:08PM 32.2256 -93.3850 114° Southeast 482 555 35,000  Level Houston Center
02:09PM 32.1708 -93.2394 112° Southeast 477 549 35,000  Level Houston Center
02:10PM 32.1206 -93.0894 113° Southeast 482 555 35,000  Level Houston Center
02:11PM 32.0678 -92.9442 113° Southeast 482 555 35,000  Level Houston Center
02:12PM 32.0128 -92.7942 110° East 482 555 35,000  Level Houston Center
02:13PM 31.9661 -92.6419 101° East 482 555 35,000  Level Houston Center
02:14PM 31.9381 -92.4778 100° East 488 562 35,000 -60 Level Houston Center
02:15PM 31.9139 -92.3211 102° East 494 568 34,900  Descending Houston Center
02:16PM 31.8853 -92.1572 102° East 494 568 35,000  Climbing Houston Center
02:17PM 31.8567 -91.9933 101° East 500 575 35,000  Level Houston Center
02:18PM 31.8297 -91.8344 100° East 500 575 35,000  Level Houston Center
02:19PM 31.8047 -91.6708 103° East 505 581 35,000  Level Houston Center
02:20PM 31.7736 -91.5097 101° East 505 581 35,000  Level Houston Center
02:21PM 31.7439 -91.3317 101° East 505 581 35,000  Level Houston Center
02:22PM 31.7164 -91.1683 103° East 510 587 35,000  Level Houston Center
02:23PM 31.6844 -91.0050 102° East 510 587 35,000  Level Houston Center
02:24PM 31.6542 -90.8419 102° East 505 581 35,000  Level Houston Center
02:25PM 31.6239 -90.6789 102° East 511 588 35,000  Level Houston Center
02:26PM 31.5956 -90.5206 102° East 506 582 35,000  Level Houston Center
02:27PM 31.5650 -90.3578 102° East 506 582 35,000 -60 Level Houston Center
02:28PM 31.5361 -90.2000 102° East 506 582 34,900  Descending Houston Center
02:29PM 31.5072 -90.0422 98° East 506 582 35,000  Climbing Houston Center
02:30PM 31.4886 -89.8817 97° East 506 582 35,000  Level Houston Center
02:31PM 31.4717 -89.7189 97° East 506 582 35,000  Level Houston Center
02:32PM 31.4547 -89.5611 99° East 499 574 35,000  Level Houston Center
02:33PM 31.4333 -89.4036 97° East 499 574 35,000  Level Houston Center
02:34PM 31.4161 -89.2433 97° East 499 574 35,000  Level Houston Center
02:35PM 31.3986 -89.0833 97° East 499 574 35,000  Level Houston Center
02:36PM 31.3856 -88.9572 98° East 499 574 35,000  Level Houston Center
02:37PM 31.3653 -88.7828 97° East 499 574 35,000  Level Houston Center
02:38PM 31.3492 -88.6228 97° East 499 574 35,000  Level Houston Center
02:39PM 31.3308 -88.4606 97° East 499 574 35,000  Level Houston Center
02:42PM 31.2617 -87.8525 99° East 499 574 35,000  Level Jacksonville Center
02:43PM 31.2408 -87.6911 98° East 499 574 35,000  Level Jacksonville Center
02:44PM 31.2214 -87.5347 98° East 499 574 35,000  Level Jacksonville Center
02:45PM 31.2022 -87.3736 98° East 499 574 35,000  Level Jacksonville Center
02:46PM 31.1828 -87.2147 98° East 487 560 35,000  Level Jacksonville Center
02:47PM 31.1631 -87.0536 101° East 487 560 35,000  Level Jacksonville Center
02:48PM 31.1367 -86.8947 98° East 487 560 35,000  Level Jacksonville Center
02:49PM 31.1186 -86.7361 99° East 487 560 35,000  Level Jacksonville Center
02:50PM 31.0964 -86.5753 98° East 492 566 35,000  Level Jacksonville Center
02:51PM 31.0758 -86.4119 99° East 498 573 35,000  Level Jacksonville Center
02:52PM 31.0550 -86.2561 99° East 498 573 35,000  Level Jacksonville Center
02:53PM 31.0322 -86.0856 99° East 498 573 35,000  Level Jacksonville Center
02:54PM 31.0092 -85.9247 100° East 498 573 35,000  Level Jacksonville Center
02:55PM 30.9858 -85.7664 99° East 498 573 35,000  Level Jacksonville Center
02:56PM 30.9642 -85.6108 100° East 493 567 35,000  Level Jacksonville Center
02:57PM 30.9403 -85.4478 99° East 493 567 35,000  Level Jacksonville Center
02:58PM 30.9183 -85.2900 99° East 493 567 35,000  Level Jacksonville Center
02:59PM 30.8961 -85.1319 98° East 493 567 35,000  Level Jacksonville Center
03:00PM 30.8758 -84.9742 99° East 488 562 35,000  Level Jacksonville Center
03:01PM 30.8533 -84.8139 101° East 488 562 35,000  Level Jacksonville Center
03:02PM 30.8303 -84.6708 106° East 493 567 35,000  Level Jacksonville Center
03:03PM 30.7889 -84.5008 118° Southeast 493 567 35,000  Level Jacksonville Center
03:04PM 30.7319 -84.3742 114° Southeast 493 567 35,000  Level Jacksonville Center
03:05PM 30.6750 -84.2233 114° Southeast 493 567 35,000  Level Jacksonville Center
03:06PM 30.6181 -84.0753 114° Southeast 498 573 35,000 -540 Level Jacksonville Center
03:07PM 30.5608 -83.9275 114° Southeast 498 573 34,000 -1,200 Descending Jacksonville Center
03:08PM 30.5056 -83.7847 115° Southeast 498 573 32,700 -1,800 Descending Jacksonville Center
03:09PM 30.4461 -83.6372 114° Southeast 498 573 30,400 -2,160 Descending Jacksonville Center
03:10PM 30.3903 -83.4922 114° Southeast 498 573 28,400 -1,560 Descending Jacksonville Center
03:11PM 30.3367 -83.3547 115° Southeast 482 555 27,300 -780 Descending Jacksonville Center
03:12PM 30.2808 -83.2172 114° Southeast 471 542 26,900 -180 Descending Jacksonville Center
03:13PM 30.2267 -83.0778 115° Southeast 466 536 27,000 -60 Climbing Jacksonville Center
03:14PM 30.1725 -82.9431 115° Southeast 461 531 26,800 -660 Descending Jacksonville Center
03:15PM 30.1183 -82.8086 115° Southeast 461 531 25,700 -900 Descending Jacksonville Center
03:16PM 30.0597 -82.6644 115° Southeast 461 531 25,000 -360 Descending Jacksonville Center
03:17PM 30.0072 -82.5328 130° Southeast 455 524 25,000  Level Jacksonville Center
03:18PM 29.9317 -82.4275 166° South 433 498 25,000  Level Jacksonville Center
03:19PM 29.8125 -82.3922 164° South 408 470 25,000 -480 Level Jacksonville Center
03:20PM 29.6997 -82.3547 162° South 415 478 24,100 -600 Descending Jacksonville Center
03:21PM 29.5847 -82.3122 163° South 426 490 23,800 -900 Descending Jacksonville Center
03:22PM 29.4717 -82.2725 163° South 426 490 22,400 -1,500 Descending Jacksonville Center
03:23PM 29.3672 -82.2350 163° South 415 478 20,800 -1,800 Descending Jacksonville Center
03:24PM 29.2606 -82.1975 163° South 404 465 18,800 -2,100 Descending Jacksonville Center
03:25PM 29.1581 -82.1625 162° South 399 459 16,700 -2,040 Descending Jacksonville Center
03:26PM 29.0575 -82.1253 130° Southeast 394 453 14,800 -1,860 Descending Jacksonville Center
03:27PM 28.9922 -82.0356 141° Southeast 355 409 13,000 -1,680 Descending Jacksonville Center
03:28PM 28.9231 -81.9722 133° Southeast 355 409 11,500 -1,200 Descending Jacksonville Center
03:29PM 28.8556 -81.8897 120° Southeast 355 409 10,600 -960 Descending Jacksonville Center
03:30PM 28.8111 -81.8025 127° Southeast 338 389 9,600 -900 Descending Jacksonville Center
03:31PM 28.7603 -81.7250 123° Southeast 317 365 8,900 -360 Descending Jacksonville Center
03:32PM 28.7136 -81.6428 120° Southeast 309 356 8,900 60 Level Jacksonville Center
03:33PM 28.6833 -81.5833 114° Southeast 307 353 9,000 60 Climbing Orlando TRACON
03:34PM 28.6500 -81.5000 132° Southeast 308 354 9,000  Level Orlando TRACON
03:35PM 28.5833 -81.4167 180° South 264 304 9,000 -120 Level Orlando TRACON
03:36PM 28.5167 -81.4167 180° South 242 278 8,800 -1,020 Descending Orlando TRACON
03:37PM 28.4500 -81.4167 180° South 236 272 7,000 -1,740 Descending Orlando TRACON
03:38PM 28.4000 -81.4167 180° South 227 261 5,700 -1,380 Descending Orlando TRACON
03:39PM 28.3333 -81.4167 180° South 197 227 4,200 -780 Descending Orlando TRACON
03:40PM 28.2833 -81.4167 164° South 192 221 4,000 -540 Descending Orlando TRACON
03:41PM 28.2333 -81.4000 90° East 188 216 3,300 -540 Descending Orlando TRACON
03:42PM 28.2333 -81.3500 90° East 189 217 3,000 -300 Descending Orlando TRACON